createdAt,value
2017-10-04T00:00:57.369Z,12.87
2017-10-04T00:03:26.692Z,12.40
2017-10-04T00:05:55.870Z,11.10
2017-10-04T00:08:24.853Z,11.53
2017-10-04T00:10:54.597Z,10.93
2017-10-04T00:13:24.108Z,10.57
2017-10-04T00:15:52.985Z,11.70
2017-10-04T00:18:21.896Z,10.80
2017-10-04T00:20:50.772Z,10.20
2017-10-04T00:23:20.850Z,11.03
2017-10-04T00:25:49.885Z,11.37
2017-10-04T00:28:19.744Z,9.20
2017-10-04T00:30:48.641Z,10.50
2017-10-04T00:33:17.595Z,10.90
2017-10-04T00:35:48.110Z,10.50
2017-10-04T00:38:18.124Z,10.03
2017-10-04T00:40:46.910Z,9.50
2017-10-04T00:43:16.913Z,9.30
2017-10-04T00:45:46.343Z,10.07
2017-10-04T00:48:17.090Z,9.90
2017-10-04T00:50:47.186Z,10.00
2017-10-04T00:53:16.019Z,10.97
2017-10-04T00:55:44.965Z,11.23
2017-10-04T00:58:13.858Z,10.80
2017-10-04T01:00:42.961Z,12.07
2017-10-04T01:03:12.604Z,12.40
2017-10-04T01:05:41.966Z,13.30
2017-10-04T01:08:11.190Z,15.60
2017-10-04T01:10:40.362Z,14.27
2017-10-04T01:13:10.697Z,15.57
2017-10-04T01:15:40.429Z,15.10
2017-10-04T01:18:09.497Z,16.97
2017-10-04T01:20:39.000Z,16.77
2017-10-04T01:23:07.850Z,13.57
2017-10-04T01:25:36.783Z,14.40
2017-10-04T01:28:19.193Z,14.17
2017-10-04T01:30:50.542Z,14.43
2017-10-04T01:33:20.453Z,13.93
2017-10-04T01:35:49.142Z,11.80
2017-10-04T01:38:17.965Z,12.40
2017-10-04T01:40:46.716Z,12.80
2017-10-04T01:43:15.810Z,11.70
2017-10-04T01:45:44.606Z,13.13
2017-10-04T01:48:13.440Z,11.77
2017-10-04T01:50:43.201Z,12.40
2017-10-04T01:53:12.767Z,13.47
2017-10-04T01:55:41.662Z,13.60
2017-10-04T01:58:10.925Z,13.27
2017-10-04T02:00:39.995Z,12.90
2017-10-04T02:03:08.884Z,14.30
2017-10-04T02:05:38.496Z,13.30
2017-10-04T02:08:07.590Z,12.83
2017-10-04T02:10:36.482Z,12.67
2017-10-04T02:13:05.680Z,10.80
2017-10-04T02:15:34.585Z,11.50
2017-10-04T02:18:03.460Z,12.53
2017-10-04T02:20:32.247Z,14.20
2017-10-04T02:23:00.952Z,14.63
2017-10-04T02:25:29.986Z,14.17
2017-10-04T02:27:59.646Z,15.10
2017-10-04T02:30:28.271Z,15.03
2017-10-04T02:32:57.012Z,14.50
2017-10-04T02:35:25.900Z,13.60
2017-10-04T02:37:54.793Z,12.87
2017-10-04T02:40:23.637Z,12.70
2017-10-04T02:42:53.086Z,12.00
2017-10-04T02:45:22.860Z,11.77
2017-10-04T02:47:52.580Z,12.07
2017-10-04T02:50:22.700Z,11.97
2017-10-04T02:52:52.688Z,11.00
2017-10-04T02:55:21.741Z,12.23
2017-10-04T02:57:51.615Z,12.20
2017-10-04T03:00:22.440Z,11.63
2017-10-04T03:02:52.264Z,12.50
2017-10-04T03:05:21.670Z,11.83
2017-10-04T03:07:50.397Z,13.20
2017-10-04T03:10:21.302Z,12.70
2017-10-04T03:12:50.289Z,13.60
2017-10-04T03:15:20.818Z,13.87
2017-10-04T03:17:49.653Z,12.23
2017-10-04T03:20:18.539Z,12.57
2017-10-04T03:22:47.705Z,13.00
2017-10-04T03:25:16.662Z,13.40
2017-10-04T03:27:46.477Z,12.10
2017-10-04T03:30:16.240Z,12.53
2017-10-04T03:32:44.937Z,12.10
2017-10-04T03:35:14.986Z,11.67
2017-10-04T03:37:43.950Z,12.20
2017-10-04T03:40:12.810Z,12.67
2017-10-04T03:42:41.975Z,12.00
2017-10-04T03:45:11.881Z,11.20
2017-10-04T03:47:41.496Z,12.80
2017-10-04T03:50:10.247Z,12.23
2017-10-04T03:52:39.362Z,12.57
2017-10-04T03:55:08.238Z,12.30
2017-10-04T03:57:39.126Z,12.70
2017-10-04T04:00:09.661Z,12.67
2017-10-04T04:02:38.795Z,11.30
2017-10-04T04:05:07.686Z,12.97
2017-10-04T04:07:37.154Z,12.40
2017-10-04T04:10:06.907Z,14.33
2017-10-04T04:12:35.540Z,13.40
2017-10-04T04:15:04.890Z,12.53
2017-10-04T04:17:33.798Z,13.27
2017-10-04T04:20:02.878Z,13.90
2017-10-04T04:22:31.664Z,15.70
2017-10-04T04:25:00.541Z,14.67
2017-10-04T04:27:29.450Z,13.23
2017-10-04T04:29:58.238Z,15.23
2017-10-04T04:32:27.128Z,13.87
2017-10-04T04:34:55.821Z,15.13
2017-10-04T04:37:24.749Z,14.23
2017-10-04T04:39:53.499Z,14.50
2017-10-04T04:42:22.180Z,21.23
2017-10-04T04:44:51.274Z,15.17
2017-10-04T04:47:21.343Z,21.83
2017-10-04T04:49:50.294Z,16.70
2017-10-04T04:52:19.747Z,12.90
2017-10-04T04:54:48.583Z,13.30
2017-10-04T04:57:18.481Z,16.07
2017-10-04T04:59:47.274Z,12.70
2017-10-04T05:02:16.388Z,15.77
2017-10-04T05:04:45.487Z,13.93
2017-10-04T05:07:16.154Z,14.00
2017-10-04T05:09:45.718Z,17.10
2017-10-04T05:12:14.515Z,16.00
2017-10-04T05:14:43.319Z,15.77
2017-10-04T05:17:12.220Z,12.77
2017-10-04T05:19:41.299Z,14.00
2017-10-04T05:22:10.216Z,15.30
2017-10-04T05:24:39.274Z,18.03
2017-10-04T05:27:10.188Z,15.67
2017-10-04T05:29:39.022Z,16.73
2017-10-04T05:32:09.362Z,17.73
2017-10-04T05:34:38.216Z,17.30
2017-10-04T05:37:07.286Z,15.37
2017-10-04T05:39:36.558Z,17.17
2017-10-04T05:42:05.802Z,16.40
2017-10-04T05:44:34.855Z,16.60
2017-10-04T05:47:04.612Z,16.17
2017-10-04T05:49:33.552Z,16.20
2017-10-04T05:52:03.321Z,17.60
2017-10-04T05:54:33.235Z,16.73
2017-10-04T05:57:02.948Z,17.10
2017-10-04T05:59:32.802Z,16.03
2017-10-04T06:02:02.150Z,15.57
2017-10-04T06:04:32.910Z,16.00
2017-10-04T06:07:01.898Z,17.33
2017-10-04T06:09:31.137Z,123.70
2017-10-04T06:12:00.077Z,18.63
2017-10-04T06:14:29.587Z,19.37
2017-10-04T06:16:58.882Z,16.23
2017-10-04T06:19:27.776Z,18.77
2017-10-04T06:21:57.594Z,16.23
2017-10-04T06:24:27.281Z,16.30
2017-10-04T06:26:56.534Z,17.80
2017-10-04T06:29:25.901Z,19.33
2017-10-04T06:31:56.270Z,17.97
2017-10-04T06:34:26.382Z,18.40
2017-10-04T06:36:55.170Z,18.73
2017-10-04T06:39:24.336Z,18.27
2017-10-04T06:41:55.467Z,19.10
2017-10-04T06:44:24.786Z,18.80
2017-10-04T06:46:53.839Z,19.03
2017-10-04T06:49:22.968Z,19.87
2017-10-04T06:51:52.115Z,20.47
2017-10-04T06:54:21.571Z,18.50
2017-10-04T06:56:50.873Z,18.50
2017-10-04T06:59:19.718Z,19.43
2017-10-04T07:01:48.960Z,23.60
2017-10-04T07:04:18.496Z,22.07
2017-10-04T07:06:48.314Z,18.30
2017-10-04T07:09:17.783Z,18.20
2017-10-04T07:11:46.873Z,18.33
2017-10-04T07:14:15.766Z,19.10
2017-10-04T07:16:44.658Z,19.93
2017-10-04T07:19:13.705Z,19.80
2017-10-04T07:21:42.466Z,21.83
2017-10-04T07:24:11.559Z,23.63
2017-10-04T07:26:41.243Z,20.00
2017-10-04T07:29:10.926Z,19.90
2017-10-04T07:31:39.800Z,19.37
2017-10-04T07:34:08.737Z,23.03
2017-10-04T07:36:37.631Z,20.47
2017-10-04T07:39:06.730Z,19.30
2017-10-04T07:41:35.635Z,18.70
2017-10-04T07:44:04.871Z,18.00
2017-10-04T07:46:34.421Z,16.83
2017-10-04T07:49:03.385Z,16.83
2017-10-04T07:51:32.486Z,18.33
2017-10-04T07:54:02.681Z,16.17
2017-10-04T07:56:31.523Z,14.97
2017-10-04T07:59:01.092Z,15.63
2017-10-04T08:01:32.609Z,13.40
2017-10-04T08:04:01.884Z,14.20
2017-10-04T08:06:30.770Z,15.77
2017-10-04T08:09:00.024Z,14.30
2017-10-04T08:11:29.577Z,15.70
2017-10-04T08:13:58.595Z,12.97
2017-10-04T08:16:27.473Z,12.93
2017-10-04T08:18:57.582Z,14.33
2017-10-04T08:21:26.835Z,14.00
2017-10-04T08:23:55.772Z,13.90
2017-10-04T08:26:24.630Z,13.30
2017-10-04T08:28:53.945Z,13.50
2017-10-04T08:31:23.141Z,13.10
2017-10-04T08:33:54.218Z,12.43
2017-10-04T08:36:23.303Z,13.07
2017-10-04T08:38:52.346Z,12.37
2017-10-04T08:41:21.990Z,13.40
2017-10-04T08:43:52.655Z,12.80
2017-10-04T08:46:21.672Z,10.60
2017-10-04T08:48:51.460Z,10.97
2017-10-04T08:51:22.084Z,11.37
2017-10-04T08:53:51.170Z,11.40
2017-10-04T08:56:20.994Z,11.83
2017-10-04T08:58:49.799Z,10.90
2017-10-04T09:01:18.521Z,10.87
2017-10-04T09:03:48.444Z,10.80
2017-10-04T09:06:20.396Z,10.90
2017-10-04T09:08:51.487Z,9.13
2017-10-04T09:11:20.280Z,8.50
2017-10-04T09:13:49.162Z,4.17
2017-10-04T09:16:19.899Z,3.43
2017-10-04T09:18:49.811Z,3.43
2017-10-04T09:21:18.928Z,3.43
2017-10-04T09:23:48.826Z,3.73
2017-10-04T09:26:18.325Z,3.17
2017-10-04T09:28:47.220Z,2.93
2017-10-04T09:31:16.646Z,4.20
2017-10-04T09:33:46.248Z,3.30
2017-10-04T09:36:14.843Z,3.47
2017-10-04T09:38:44.320Z,3.40
2017-10-04T09:41:13.411Z,3.67
2017-10-04T09:43:42.103Z,4.10
2017-10-04T09:46:11.554Z,3.47
2017-10-04T09:48:41.495Z,9.13
2017-10-04T09:51:11.257Z,3.50
2017-10-04T09:53:40.254Z,2.83
2017-10-04T09:56:09.502Z,4.17
2017-10-04T09:58:38.258Z,3.13
2017-10-04T10:01:07.245Z,3.13
2017-10-04T10:03:36.388Z,3.47
2017-10-04T10:06:05.329Z,3.13
2017-10-04T10:08:35.827Z,3.30
2017-10-04T10:11:04.836Z,4.33
2017-10-04T10:13:33.790Z,4.00
2017-10-04T10:16:03.102Z,3.57
2017-10-04T10:18:32.819Z,2.80
2017-10-04T10:21:02.335Z,2.60
2017-10-04T10:23:31.957Z,2.77
2017-10-04T10:26:02.047Z,3.70
2017-10-04T10:28:31.355Z,2.90
2017-10-04T10:31:00.194Z,2.70
2017-10-04T10:33:29.104Z,2.87
2017-10-04T10:36:00.210Z,2.60
2017-10-04T10:38:29.171Z,2.37
2017-10-04T10:40:59.126Z,3.60
2017-10-04T10:43:29.333Z,3.33
2017-10-04T10:45:58.293Z,2.83
2017-10-04T10:48:27.210Z,2.70
2017-10-04T10:50:56.280Z,2.80
2017-10-04T10:53:25.240Z,2.00
2017-10-04T10:55:55.286Z,3.37
2017-10-04T10:58:25.110Z,2.63
2017-10-04T11:00:54.231Z,2.73
2017-10-04T11:03:23.444Z,2.43
2017-10-04T11:05:52.603Z,2.20
2017-10-04T11:08:21.903Z,2.50
2017-10-04T11:10:51.755Z,3.40
2017-10-04T11:13:21.579Z,2.47
2017-10-04T11:15:51.396Z,2.60
2017-10-04T11:18:20.550Z,2.53
2017-10-04T11:20:50.455Z,2.40
2017-10-04T11:23:21.152Z,2.83
2017-10-04T11:25:50.331Z,2.53
2017-10-04T11:28:19.893Z,3.40
2017-10-04T11:30:49.046Z,3.00
2017-10-04T11:33:18.908Z,3.47
2017-10-04T11:35:48.617Z,2.80
2017-10-04T11:38:17.936Z,3.00
2017-10-04T11:40:46.821Z,2.73
2017-10-04T11:43:15.935Z,3.40
2017-10-04T11:45:45.825Z,2.57
2017-10-04T11:48:14.708Z,3.23
2017-10-04T11:50:43.763Z,3.43
2017-10-04T11:53:12.653Z,2.93
2017-10-04T11:55:41.552Z,3.10
2017-10-04T11:58:10.495Z,4.20
2017-10-04T12:00:39.484Z,4.07
2017-10-04T12:03:08.566Z,3.70
2017-10-04T12:05:37.409Z,3.10
2017-10-04T12:08:06.703Z,3.10
2017-10-04T12:10:35.545Z,2.93
2017-10-04T12:13:04.715Z,2.87
2017-10-04T12:15:33.700Z,2.90
2017-10-04T12:18:02.963Z,3.20
2017-10-04T12:20:32.194Z,2.97
2017-10-04T12:23:01.264Z,2.80
2017-10-04T12:25:30.678Z,3.00
2017-10-04T12:27:59.837Z,4.00
2017-10-04T12:30:29.331Z,2.60
2017-10-04T12:32:58.590Z,2.60
2017-10-04T12:35:27.537Z,2.70
2017-10-04T12:37:57.034Z,2.60
2017-10-04T12:40:26.130Z,3.63
2017-10-04T12:42:54.741Z,2.70
2017-10-04T12:45:23.607Z,5.63
2017-10-04T12:47:53.539Z,2.80
2017-10-04T12:50:24.050Z,2.77
2017-10-04T12:52:52.874Z,2.83
2017-10-04T12:55:21.626Z,2.30
2017-10-04T12:57:50.517Z,3.83
2017-10-04T13:00:19.517Z,2.67
2017-10-04T13:02:49.056Z,3.00
2017-10-04T13:05:19.155Z,3.33
2017-10-04T13:07:47.925Z,2.50
2017-10-04T13:10:16.802Z,3.20
2017-10-04T13:12:45.623Z,2.90
2017-10-04T13:15:15.746Z,3.03
2017-10-04T13:17:44.411Z,3.43
2017-10-04T13:20:13.330Z,2.67
2017-10-04T13:22:43.297Z,2.90
2017-10-04T13:25:13.241Z,2.60
2017-10-04T13:27:42.240Z,2.87
2017-10-04T13:30:11.062Z,3.83
2017-10-04T13:32:40.216Z,3.40
2017-10-04T13:35:10.226Z,3.33
2017-10-04T13:37:39.439Z,2.40
2017-10-04T13:40:09.156Z,2.57
2017-10-04T13:42:38.449Z,2.20
2017-10-04T13:45:07.366Z,2.80
2017-10-04T13:47:36.472Z,2.60
2017-10-04T13:50:06.139Z,2.60
2017-10-04T13:52:35.043Z,2.93
2017-10-04T13:55:04.233Z,2.63
2017-10-04T13:57:33.742Z,2.40
2017-10-04T14:00:02.620Z,2.77
2017-10-04T14:02:31.430Z,2.50
2017-10-04T14:04:59.981Z,2.80
2017-10-04T14:07:28.694Z,2.80
2017-10-04T14:09:58.362Z,2.57
2017-10-04T14:12:27.809Z,3.97
2017-10-04T14:14:56.709Z,2.80
2017-10-04T14:17:25.682Z,2.87
2017-10-04T14:19:54.534Z,2.40
2017-10-04T14:22:24.225Z,2.80
2017-10-04T14:24:53.021Z,2.50
2017-10-04T14:27:21.974Z,2.73
2017-10-04T14:29:50.630Z,3.27
2017-10-04T14:32:19.333Z,2.77
2017-10-04T14:34:47.978Z,2.90
2017-10-04T14:37:16.741Z,3.00
2017-10-04T14:39:45.548Z,2.90
2017-10-04T14:42:14.550Z,2.57
2017-10-04T14:44:44.609Z,3.40
2017-10-04T14:47:13.451Z,2.30
2017-10-04T14:49:43.431Z,2.77
2017-10-04T14:52:12.132Z,3.47
2017-10-04T14:54:41.196Z,3.00
2017-10-04T14:57:10.400Z,2.77
2017-10-04T14:59:39.497Z,3.33
2017-10-04T15:02:08.593Z,2.90
2017-10-04T15:04:37.596Z,2.97
2017-10-04T15:07:06.395Z,2.80
2017-10-04T15:09:35.112Z,2.43
2017-10-04T15:12:04.119Z,2.70
2017-10-04T15:14:32.944Z,2.63
2017-10-04T15:17:03.023Z,2.77
2017-10-04T15:19:32.124Z,2.83
2017-10-04T15:22:01.780Z,3.50
2017-10-04T15:24:32.248Z,2.50
2017-10-04T15:27:01.799Z,4.37
2017-10-04T15:29:30.430Z,2.70
2017-10-04T15:31:59.915Z,4.33
2017-10-04T15:34:28.586Z,2.93
2017-10-04T15:36:57.779Z,2.80
2017-10-04T15:39:27.658Z,3.57
2017-10-04T15:41:56.459Z,3.17
2017-10-04T15:44:25.549Z,4.10
2017-10-04T15:46:54.561Z,3.00
2017-10-04T15:49:23.312Z,3.07
2017-10-04T15:51:52.424Z,2.33
2017-10-04T15:54:21.576Z,6.50
2017-10-04T15:56:50.382Z,5.10
2017-10-04T15:59:20.136Z,2.87
2017-10-04T16:01:49.450Z,3.80
2017-10-04T16:04:18.340Z,2.67
2017-10-04T16:06:47.789Z,3.10
2017-10-04T16:09:17.125Z,3.90
2017-10-04T16:11:46.347Z,2.97
2017-10-04T16:14:14.978Z,3.33
2017-10-04T16:16:43.721Z,2.67
2017-10-04T16:19:13.512Z,3.13
2017-10-04T16:21:43.328Z,2.60
2017-10-04T16:24:14.844Z,4.30
2017-10-04T16:26:43.745Z,3.90
2017-10-04T16:29:14.129Z,5.43
2017-10-04T16:31:43.908Z,3.60
2017-10-04T16:34:12.890Z,3.83
2017-10-04T16:36:43.693Z,5.43
2017-10-04T16:39:13.516Z,4.10
2017-10-04T16:41:42.894Z,3.57
2017-10-04T16:44:13.600Z,3.50
2017-10-04T16:46:42.632Z,3.30
2017-10-04T16:49:11.381Z,3.20
2017-10-04T16:51:40.602Z,3.23
2017-10-04T16:54:09.561Z,2.90
2017-10-04T16:56:39.186Z,3.53
2017-10-04T16:59:08.138Z,3.30
2017-10-04T17:01:38.195Z,3.53
2017-10-04T17:04:07.206Z,3.40
2017-10-04T17:06:37.350Z,3.73
2017-10-04T17:09:06.648Z,4.20
2017-10-04T17:11:35.435Z,3.60
2017-10-04T17:14:05.271Z,3.60
2017-10-04T17:16:34.122Z,4.07
2017-10-04T17:19:02.927Z,3.37
2017-10-04T17:21:32.034Z,3.60
2017-10-04T17:24:01.289Z,3.77
2017-10-04T17:26:30.792Z,3.60
2017-10-04T17:28:59.691Z,3.70
2017-10-04T17:31:28.827Z,3.83
2017-10-04T17:33:58.628Z,4.77
2017-10-04T17:36:27.482Z,3.77
2017-10-04T17:38:57.944Z,3.70
2017-10-04T17:41:26.921Z,4.00
2017-10-04T17:43:55.920Z,3.73
2017-10-04T17:46:25.610Z,4.40
2017-10-04T17:48:54.376Z,3.37
2017-10-04T17:51:23.456Z,5.07
2017-10-04T17:53:52.202Z,4.80
2017-10-04T17:56:21.737Z,3.87
2017-10-04T17:58:51.622Z,3.67
2017-10-04T18:01:20.701Z,3.47
2017-10-04T18:03:50.439Z,4.30
2017-10-04T18:06:21.108Z,3.40
2017-10-04T18:08:49.787Z,3.97
2017-10-04T18:11:18.537Z,3.87
2017-10-04T18:13:47.645Z,4.00
2017-10-04T18:16:17.775Z,4.43
2017-10-04T18:18:46.430Z,5.23
2017-10-04T18:21:15.521Z,4.30
2017-10-04T18:23:45.852Z,3.90
2017-10-04T18:26:16.023Z,4.77
2017-10-04T18:28:45.001Z,5.53
2017-10-04T18:31:14.043Z,5.50
2017-10-04T18:33:43.477Z,5.20
2017-10-04T18:36:12.379Z,4.80
2017-10-04T18:38:41.044Z,4.97
2017-10-04T18:41:09.691Z,5.63
2017-10-04T18:43:38.599Z,6.03
2017-10-04T18:46:07.692Z,6.03
2017-10-04T18:48:37.240Z,6.00
2017-10-04T18:51:06.762Z,5.70
2017-10-04T18:53:36.391Z,6.33
2017-10-04T18:56:05.001Z,6.33
2017-10-04T18:58:34.957Z,6.03
2017-10-04T19:01:04.110Z,6.70
2017-10-04T19:03:33.314Z,8.07
2017-10-04T19:06:02.929Z,7.33
2017-10-04T19:08:33.403Z,7.27
2017-10-04T19:11:04.544Z,6.20
2017-10-04T19:13:36.112Z,6.90
2017-10-04T19:16:07.252Z,7.43
2017-10-04T19:18:42.395Z,6.60
2017-10-04T19:21:12.851Z,7.50
2017-10-04T19:23:42.360Z,5.30
2017-10-04T19:26:11.249Z,6.27
2017-10-04T19:28:40.727Z,5.87
2017-10-04T19:31:10.475Z,5.00
2017-10-04T19:33:39.767Z,4.60
2017-10-04T19:36:09.680Z,5.27
2017-10-04T19:38:38.708Z,6.40
2017-10-04T19:41:07.461Z,6.57
2017-10-04T19:43:36.642Z,5.53
2017-10-04T19:46:05.283Z,5.40
2017-10-04T19:48:34.271Z,4.80
2017-10-04T19:51:03.621Z,5.60
2017-10-04T19:53:32.619Z,8.70
2017-10-04T19:56:02.590Z,8.40
2017-10-04T19:58:32.159Z,16.33
2017-10-04T20:01:00.870Z,5.87
2017-10-04T20:03:29.938Z,8.60
2017-10-04T20:05:58.882Z,16.43
2017-10-04T20:08:28.896Z,7.63
2017-10-04T20:10:58.866Z,6.60
2017-10-04T20:13:27.758Z,6.67
2017-10-04T20:15:57.481Z,5.90
2017-10-04T20:18:26.262Z,6.10
2017-10-04T20:20:55.043Z,6.10
2017-10-04T20:23:24.818Z,4.90
2017-10-04T20:25:54.880Z,6.50
2017-10-04T20:28:24.694Z,7.80
2017-10-04T20:30:53.377Z,7.50
2017-10-04T20:33:22.235Z,6.80
2017-10-04T20:35:52.149Z,7.97
2017-10-04T20:38:21.734Z,7.10
2017-10-04T20:40:50.773Z,5.40
2017-10-04T20:43:20.429Z,6.03
2017-10-04T20:45:49.881Z,6.30
2017-10-04T20:48:19.018Z,7.43
2017-10-04T20:50:49.334Z,5.80
2017-10-04T20:53:18.311Z,7.53
2017-10-04T20:55:47.731Z,5.77
2017-10-04T20:58:16.870Z,6.50
2017-10-04T21:00:46.749Z,6.17
2017-10-04T21:03:16.037Z,6.57
2017-10-04T21:05:45.333Z,5.80
2017-10-04T21:08:14.808Z,6.57
2017-10-04T21:10:44.352Z,6.70
2017-10-04T21:13:13.463Z,6.17
2017-10-04T21:15:43.127Z,6.90
2017-10-04T21:18:12.647Z,10.50
2017-10-04T22:29:20.046Z,19.50
2017-10-04T22:31:49.571Z,9.70
2017-10-04T22:34:26.735Z,8.77
2017-10-04T22:36:57.849Z,8.07
2017-10-04T22:39:28.980Z,9.30
2017-10-04T22:42:01.043Z,9.60
2017-10-04T22:44:30.144Z,8.83
2017-10-04T22:46:59.337Z,8.20
2017-10-04T22:49:29.231Z,11.63
2017-10-04T22:51:59.850Z,9.00
2017-10-04T22:54:29.397Z,9.43
2017-10-04T22:56:58.354Z,7.97
2017-10-04T22:59:28.406Z,8.23
2017-10-04T23:01:57.307Z,7.43
2017-10-04T23:04:26.397Z,8.00
2017-10-04T23:06:56.069Z,8.53
2017-10-04T23:09:25.198Z,8.27
2017-10-04T23:11:55.718Z,8.60
2017-10-04T23:14:25.637Z,9.30
2017-10-04T23:16:55.694Z,8.90
2017-10-04T23:19:24.851Z,11.00
2017-10-04T23:21:55.328Z,8.40
2017-10-04T23:24:25.572Z,7.80
2017-10-04T23:26:54.903Z,8.40
2017-10-04T23:29:24.721Z,7.97
2017-10-04T23:31:54.799Z,8.33
2017-10-04T23:34:25.063Z,9.30
2017-10-04T23:36:54.401Z,10.90
2017-10-04T23:39:23.438Z,7.90
2017-10-04T23:41:55.663Z,8.20
2017-10-04T23:44:24.772Z,7.50
2017-10-04T23:46:54.236Z,8.83
2017-10-04T23:49:23.641Z,9.67
2017-10-04T23:51:53.092Z,8.60
2017-10-04T23:54:24.221Z,9.10
2017-10-04T23:56:54.473Z,9.00
2017-10-04T23:59:24.174Z,8.57
